createdAt,value
2019-06-08T00:00:34.089Z,15.95
2019-06-08T00:03:04.991Z,15.89
2019-06-08T00:05:35.839Z,15.88
2019-06-08T00:08:06.572Z,15.90
2019-06-08T00:10:37.266Z,15.94
2019-06-08T00:13:08.061Z,16.01
2019-06-08T00:15:38.924Z,16.00
2019-06-08T00:18:09.814Z,15.89
2019-06-08T00:20:41.592Z,15.67
2019-06-08T00:23:13.753Z,15.52
2019-06-08T00:25:44.720Z,15.53
2019-06-08T00:28:16.104Z,15.55
2019-06-08T00:30:47.096Z,15.54
2019-06-08T00:33:18.570Z,15.43
2019-06-08T00:35:50.378Z,15.41
2019-06-08T00:38:22.972Z,15.28
2019-06-08T00:40:53.959Z,15.29
2019-06-08T00:43:25.525Z,15.28
2019-06-08T00:45:56.272Z,15.26
2019-06-08T00:48:27.165Z,15.32
2019-06-08T00:50:58.068Z,15.35
2019-06-08T00:53:29.639Z,15.32
2019-06-08T00:56:00.785Z,15.29
2019-06-08T00:58:31.685Z,15.37
2019-06-08T01:01:03.751Z,15.24
2019-06-08T01:03:34.299Z,15.24
2019-06-08T01:06:05.106Z,15.40
2019-06-08T01:08:36.037Z,15.36
2019-06-08T01:11:06.777Z,15.46
2019-06-08T01:13:37.594Z,15.39
2019-06-08T01:16:08.449Z,15.52
2019-06-08T01:18:39.422Z,15.57
2019-06-08T01:21:10.171Z,15.38
2019-06-08T01:23:41.038Z,15.56
2019-06-08T01:26:11.945Z,15.56
2019-06-08T01:28:42.638Z,15.57
2019-06-08T01:31:13.432Z,15.67
2019-06-08T01:33:44.330Z,15.66
2019-06-08T01:36:15.174Z,15.65
2019-06-08T01:38:46.236Z,15.66
2019-06-08T01:41:17.056Z,15.71
2019-06-08T01:43:47.917Z,15.79
2019-06-08T01:46:18.647Z,15.76
2019-06-08T01:48:49.454Z,15.80
2019-06-08T01:51:20.473Z,15.82
2019-06-08T01:53:51.137Z,15.74
2019-06-08T01:56:22.916Z,15.68
2019-06-08T01:58:53.648Z,15.70
2019-06-08T02:01:25.538Z,15.81
2019-06-08T02:03:56.471Z,15.86
2019-06-08T02:06:28.444Z,15.83
2019-06-08T02:08:59.214Z,15.79
2019-06-08T02:11:30.828Z,15.74
2019-06-08T02:14:01.656Z,15.73
2019-06-08T02:16:33.378Z,15.78
2019-06-08T02:19:04.274Z,15.78
2019-06-08T02:21:35.023Z,15.84
2019-06-08T02:24:06.282Z,15.84
2019-06-08T02:26:39.730Z,15.82
2019-06-08T02:29:12.211Z,15.85
2019-06-08T02:31:47.681Z,15.85
2019-06-08T02:34:16.140Z,15.86
2019-06-08T02:36:46.869Z,15.80
2019-06-08T02:39:18.197Z,15.66
2019-06-08T02:41:49.412Z,15.57
2019-06-08T02:44:20.818Z,15.53
2019-06-08T02:46:52.237Z,15.67
2019-06-08T02:49:24.564Z,15.80
2019-06-08T02:51:56.039Z,15.92
2019-06-08T02:54:41.760Z,16.07
2019-06-08T02:57:14.317Z,16.09
2019-06-08T02:59:47.880Z,16.13
2019-06-08T03:02:21.661Z,16.18
2019-06-08T03:04:53.547Z,16.31
2019-06-08T03:07:26.870Z,16.53
2019-06-08T03:09:58.355Z,16.66
2019-06-08T03:12:32.745Z,16.93
2019-06-08T03:15:08.026Z,17.19
2019-06-08T03:17:40.153Z,17.31
2019-06-08T03:20:12.227Z,17.48
2019-06-08T03:22:44.030Z,17.70
2019-06-08T03:25:16.269Z,17.85
2019-06-08T03:27:47.100Z,18.09
2019-06-08T03:30:19.762Z,18.46
2019-06-08T03:32:56.212Z,18.44
2019-06-08T03:35:23.554Z,18.48
2019-06-08T03:37:56.049Z,18.33
2019-06-08T03:40:26.778Z,17.90
2019-06-08T03:42:59.431Z,17.81
2019-06-08T03:45:31.430Z,17.75
2019-06-08T03:48:02.137Z,17.73
2019-06-08T03:50:33.090Z,18.14
2019-06-08T03:53:04.039Z,18.84
2019-06-08T03:55:35.400Z,18.84
2019-06-08T03:58:06.360Z,18.64
2019-06-08T04:00:40.279Z,18.55
2019-06-08T04:03:12.459Z,18.49
2019-06-08T04:05:44.901Z,18.42
2019-06-08T04:08:17.047Z,18.86
2019-06-08T04:10:50.132Z,19.60
2019-06-08T04:13:21.074Z,19.75
2019-06-08T04:15:52.081Z,20.69
2019-06-08T04:18:22.969Z,21.84
2019-06-08T04:20:53.911Z,22.98
2019-06-08T04:23:24.667Z,23.10
2019-06-08T04:25:55.535Z,22.62
2019-06-08T04:28:26.420Z,21.94
2019-06-08T04:30:57.235Z,22.76
2019-06-08T04:33:28.443Z,23.05
2019-06-08T04:35:59.261Z,22.51
2019-06-08T04:38:30.157Z,23.12
2019-06-08T04:41:00.957Z,23.82
2019-06-08T04:43:31.987Z,22.22
2019-06-08T04:46:02.833Z,22.10
2019-06-08T04:48:33.745Z,22.73
2019-06-08T04:51:04.662Z,24.22
2019-06-08T04:53:36.490Z,23.86
2019-06-08T04:56:07.307Z,22.99
2019-06-08T04:58:39.869Z,22.70
2019-06-08T05:01:10.653Z,22.49
2019-06-08T05:03:43.308Z,22.09
2019-06-08T05:06:14.373Z,21.75
2019-06-08T05:08:45.237Z,21.32
2019-06-08T05:11:17.168Z,21.54
2019-06-08T05:13:49.411Z,21.76
2019-06-08T05:16:21.792Z,21.79
2019-06-08T05:18:52.980Z,21.76
2019-06-08T05:21:23.746Z,21.61
2019-06-08T05:23:58.513Z,21.29
2019-06-08T05:26:27.375Z,21.41
2019-06-08T05:28:58.515Z,21.23
2019-06-08T05:31:29.339Z,21.26
2019-06-08T05:34:00.261Z,21.10
2019-06-08T05:36:30.926Z,21.26
2019-06-08T05:39:02.193Z,21.38
2019-06-08T05:41:33.179Z,21.52
2019-06-08T05:44:05.126Z,21.46
2019-06-08T05:46:36.079Z,21.43
2019-06-08T05:49:06.923Z,21.90
2019-06-08T05:51:37.752Z,22.14
2019-06-08T05:54:08.607Z,22.46
2019-06-08T05:56:39.821Z,22.77
2019-06-08T05:59:11.879Z,22.97
2019-06-08T06:01:44.524Z,23.35
2019-06-08T06:04:16.899Z,23.10
2019-06-08T06:06:49.261Z,22.80
2019-06-08T06:09:20.213Z,22.67
2019-06-08T06:11:52.046Z,22.64
2019-06-08T06:14:23.511Z,22.76
2019-06-08T06:16:55.514Z,23.14
2019-06-08T06:19:26.931Z,23.26
2019-06-08T06:21:57.880Z,22.83
2019-06-08T06:24:29.816Z,22.43
2019-06-08T06:27:00.602Z,22.23
2019-06-08T06:29:31.571Z,22.38
2019-06-08T06:32:02.296Z,22.32
2019-06-08T06:34:33.390Z,22.24
2019-06-08T06:37:04.371Z,21.95
2019-06-08T06:39:35.423Z,21.87
2019-06-08T06:42:06.338Z,22.15
2019-06-08T06:44:37.295Z,22.41
2019-06-08T06:47:08.892Z,22.07
2019-06-08T06:49:39.691Z,22.39
2019-06-08T06:52:10.559Z,22.52
2019-06-08T06:54:42.674Z,23.17
2019-06-08T06:57:15.279Z,23.74
2019-06-08T06:59:47.204Z,23.89
2019-06-08T07:02:18.563Z,22.83
2019-06-08T07:04:49.963Z,23.12
2019-06-08T07:07:21.232Z,23.33
2019-06-08T07:09:52.730Z,26.18
2019-06-08T07:12:23.716Z,27.09
2019-06-08T07:14:55.500Z,28.05
2019-06-08T07:17:26.363Z,27.88
2019-06-08T07:19:57.130Z,28.59
2019-06-08T07:22:27.956Z,28.06
2019-06-08T07:24:58.885Z,26.82
2019-06-08T07:27:29.771Z,25.83
2019-06-08T07:30:00.530Z,24.97
2019-06-08T07:32:31.443Z,24.41
2019-06-08T07:35:02.409Z,24.02
2019-06-08T07:37:33.307Z,23.79
2019-06-08T07:40:08.058Z,24.14
2019-06-08T07:42:39.866Z,24.02
2019-06-08T07:45:10.968Z,24.17
2019-06-08T07:47:42.153Z,24.02
2019-06-08T07:50:13.148Z,24.48
2019-06-08T07:52:44.364Z,25.33
2019-06-08T07:55:16.247Z,26.68
2019-06-08T07:57:48.628Z,26.24
2019-06-08T08:00:22.221Z,25.68
2019-06-08T08:02:54.306Z,27.30
2019-06-08T08:05:26.026Z,27.99
2019-06-08T08:07:56.983Z,26.75
2019-06-08T08:10:28.153Z,26.70
2019-06-08T08:12:59.085Z,26.33
2019-06-08T08:15:30.066Z,27.97
2019-06-08T08:18:02.104Z,29.51
2019-06-08T08:20:35.161Z,30.37
2019-06-08T08:23:09.192Z,29.50
2019-06-08T08:25:41.478Z,28.37
2019-06-08T08:28:13.733Z,27.17
2019-06-08T08:30:49.320Z,27.94
2019-06-08T08:33:22.539Z,28.64
2019-06-08T08:35:55.565Z,28.43
2019-06-08T08:38:27.976Z,28.35
2019-06-08T08:41:07.373Z,28.01
2019-06-08T08:43:37.719Z,26.78
2019-06-08T08:46:11.303Z,26.99
2019-06-08T08:48:43.761Z,27.37
2019-06-08T08:51:20.443Z,27.80
2019-06-08T08:53:53.830Z,28.41
2019-06-08T08:56:21.492Z,28.09
2019-06-08T08:58:52.504Z,28.65
2019-06-08T09:01:24.045Z,28.72
2019-06-08T09:03:57.063Z,27.97
2019-06-08T09:06:28.087Z,27.24
2019-06-08T09:09:03.641Z,28.01
2019-06-08T09:11:41.209Z,28.35
2019-06-08T09:14:13.940Z,28.43
2019-06-08T09:16:44.318Z,27.67
2019-06-08T09:19:20.627Z,26.96
2019-06-08T09:21:49.067Z,27.46
2019-06-08T09:24:20.188Z,27.77
2019-06-08T09:26:52.412Z,29.16
2019-06-08T09:29:24.693Z,30.22
2019-06-08T09:31:58.519Z,28.90
2019-06-08T09:34:29.425Z,29.03
2019-06-08T09:37:02.830Z,28.10
2019-06-08T09:39:33.286Z,27.68
2019-06-08T09:42:05.060Z,27.92
2019-06-08T09:44:38.059Z,28.37
2019-06-08T09:47:12.381Z,28.48
2019-06-08T09:49:42.126Z,27.79
2019-06-08T09:52:12.829Z,26.76
2019-06-08T09:54:44.064Z,26.47
2019-06-08T09:57:15.104Z,26.26
2019-06-08T09:59:48.225Z,26.66
2019-06-08T10:02:18.884Z,27.27
2019-06-08T10:04:51.449Z,26.59
2019-06-08T10:07:23.564Z,26.32
2019-06-08T10:09:58.505Z,26.56
2019-06-08T10:12:28.308Z,26.53
2019-06-08T10:15:00.613Z,27.39
2019-06-08T10:17:32.709Z,27.54
2019-06-08T10:20:05.234Z,27.87
2019-06-08T10:22:37.497Z,27.80
2019-06-08T10:25:11.195Z,27.61
2019-06-08T10:27:41.542Z,27.49
2019-06-08T10:30:12.735Z,26.36
2019-06-08T10:32:43.739Z,26.38
2019-06-08T10:35:20.646Z,26.48
2019-06-08T10:37:51.192Z,26.23
2019-06-08T10:40:21.700Z,26.39
2019-06-08T10:42:52.632Z,26.56
2019-06-08T10:45:23.870Z,27.32
2019-06-08T10:47:54.732Z,27.74
2019-06-08T10:50:28.822Z,27.37
2019-06-08T10:53:02.842Z,26.86
2019-06-08T10:55:32.885Z,26.49
2019-06-08T10:58:06.578Z,26.31
2019-06-08T11:00:38.832Z,26.36
2019-06-08T11:03:11.839Z,26.20
2019-06-08T11:05:42.712Z,26.06
2019-06-08T11:08:14.959Z,25.28
2019-06-08T11:10:47.516Z,25.62
2019-06-08T11:13:18.937Z,25.59
2019-06-08T11:15:50.168Z,25.79
2019-06-08T11:18:21.381Z,25.64
2019-06-08T11:20:52.176Z,25.48
2019-06-08T11:23:23.179Z,25.44
2019-06-08T11:25:54.167Z,25.25
2019-06-08T11:28:25.026Z,25.22
2019-06-08T11:30:56.361Z,25.10
2019-06-08T11:33:30.284Z,25.24
2019-06-08T11:36:03.771Z,24.89
2019-06-08T11:38:32.331Z,24.43
2019-06-08T11:41:04.582Z,23.81
2019-06-08T11:43:38.012Z,23.32
2019-06-08T11:46:08.520Z,23.01
2019-06-08T11:48:41.498Z,22.74
2019-06-08T11:51:13.185Z,22.47
2019-06-08T11:53:44.133Z,22.23
2019-06-08T11:56:18.116Z,22.07
2019-06-08T11:58:49.840Z,22.09
2019-06-08T12:01:20.678Z,22.23
2019-06-08T12:03:51.497Z,22.10
2019-06-08T12:06:23.623Z,22.01
2019-06-08T12:08:57.330Z,21.97
2019-06-08T12:11:28.511Z,21.77
2019-06-08T12:13:59.341Z,21.68
2019-06-08T12:16:31.382Z,21.64
2019-06-08T12:19:04.392Z,21.40
2019-06-08T12:21:37.980Z,21.33
2019-06-08T12:24:10.368Z,21.39
2019-06-08T12:26:41.919Z,21.19
2019-06-08T12:29:14.579Z,21.19
2019-06-08T12:31:45.805Z,21.41
2019-06-08T12:34:18.492Z,21.60
2019-06-08T12:36:49.463Z,21.64
2019-06-08T12:39:21.484Z,21.75
2019-06-08T12:41:52.779Z,21.92
2019-06-08T12:44:26.796Z,22.21
2019-06-08T12:46:58.565Z,22.52
2019-06-08T12:49:30.131Z,22.75
2019-06-08T12:52:01.085Z,22.96
2019-06-08T12:54:31.855Z,23.05
2019-06-08T12:57:02.871Z,23.44
2019-06-08T12:59:34.002Z,23.47
2019-06-08T13:02:04.808Z,23.81
2019-06-08T13:04:35.513Z,24.20
2019-06-08T13:07:09.779Z,24.55
2019-06-08T13:09:39.909Z,24.97
2019-06-08T13:12:11.450Z,24.76
2019-06-08T13:14:42.283Z,24.80
2019-06-08T13:17:13.161Z,24.72
2019-06-08T13:19:44.316Z,25.16
2019-06-08T13:22:15.079Z,25.31
2019-06-08T13:24:47.773Z,25.53
2019-06-08T13:27:22.783Z,25.52
2019-06-08T13:29:53.199Z,25.73
2019-06-08T13:32:24.705Z,25.62
2019-06-08T13:34:58.052Z,26.70
2019-06-08T13:37:28.185Z,27.09
2019-06-08T13:39:59.421Z,27.59
2019-06-08T13:42:30.950Z,27.57
2019-06-08T13:45:02.752Z,26.91
2019-06-08T13:47:33.571Z,27.44
2019-06-08T13:50:08.304Z,27.97
2019-06-08T13:52:39.224Z,28.06
2019-06-08T13:55:10.267Z,28.23
2019-06-08T13:57:42.674Z,28.12
2019-06-08T14:00:15.345Z,28.06
2019-06-08T14:02:48.500Z,27.89
2019-06-08T14:05:30.809Z,28.05
2019-06-08T14:08:03.122Z,27.66
2019-06-08T14:10:39.232Z,27.38
2019-06-08T14:13:10.221Z,27.87
2019-06-08T14:15:41.270Z,27.50
2019-06-08T14:18:12.359Z,27.62
2019-06-08T14:20:44.237Z,27.92
2019-06-08T14:23:17.519Z,27.89
2019-06-08T14:25:56.460Z,27.89
2019-06-08T14:28:23.260Z,27.77
2019-06-08T14:30:54.622Z,27.95
2019-06-08T14:33:29.130Z,27.80
2019-06-08T14:35:59.193Z,27.70
2019-06-08T14:38:37.959Z,27.69
2019-06-08T14:41:02.945Z,27.78
2019-06-08T14:43:34.506Z,27.61
2019-06-08T14:46:07.874Z,27.62
2019-06-08T14:48:38.144Z,28.05
2019-06-08T14:51:08.990Z,27.44
2019-06-08T14:53:40.174Z,27.62
2019-06-08T14:56:11.501Z,27.46
2019-06-08T14:58:42.296Z,27.80
2019-06-08T15:01:13.104Z,27.09
2019-06-08T15:03:44.253Z,27.05
2019-06-08T15:06:17.656Z,27.56
2019-06-08T15:08:50.387Z,27.54
2019-06-08T15:11:21.322Z,27.77
2019-06-08T15:13:52.322Z,27.45
2019-06-08T15:16:23.622Z,27.24
2019-06-08T15:19:00.069Z,27.31
2019-06-08T15:21:31.579Z,27.39
2019-06-08T15:24:01.846Z,27.32
2019-06-08T15:26:42.360Z,27.55
2019-06-08T15:29:07.576Z,27.56
2019-06-08T15:31:39.090Z,27.85
2019-06-08T15:34:10.844Z,27.69
2019-06-08T15:36:41.717Z,27.68
2019-06-08T15:39:14.139Z,27.74
2019-06-08T15:41:45.215Z,27.83
2019-06-08T15:44:20.764Z,27.80
2019-06-08T15:46:49.128Z,27.40
2019-06-08T15:49:20.127Z,27.38
2019-06-08T15:51:50.786Z,27.64
2019-06-08T15:54:22.745Z,27.67
2019-06-08T15:56:53.600Z,27.25
2019-06-08T15:59:30.882Z,26.89
2019-06-08T16:01:58.466Z,26.28
2019-06-08T16:04:30.206Z,26.34
2019-06-08T16:07:02.160Z,26.62
2019-06-08T16:09:34.176Z,26.51
2019-06-08T16:12:06.104Z,26.41
2019-06-08T16:14:37.132Z,26.83
2019-06-08T16:17:08.402Z,26.68
2019-06-08T16:19:39.151Z,26.80
2019-06-08T16:22:10.409Z,26.70
2019-06-08T16:24:41.210Z,26.60
2019-06-08T16:27:12.228Z,26.51
2019-06-08T16:29:43.043Z,26.51
2019-06-08T16:32:13.837Z,26.51
2019-06-08T16:34:44.745Z,26.62
2019-06-08T16:37:15.458Z,26.77
2019-06-08T16:39:46.273Z,26.83
2019-06-08T16:42:17.587Z,26.59
2019-06-08T16:44:48.441Z,26.64
2019-06-08T16:47:19.394Z,26.28
2019-06-08T16:49:50.305Z,26.03
2019-06-08T16:52:21.058Z,25.91
2019-06-08T16:54:51.743Z,25.50
2019-06-08T16:57:22.697Z,25.57
2019-06-08T16:59:53.624Z,26.03
2019-06-08T17:02:24.712Z,25.69
2019-06-08T17:04:55.835Z,25.97
2019-06-08T17:07:26.702Z,25.76
2019-06-08T17:09:57.516Z,25.24
2019-06-08T17:12:30.649Z,25.05
2019-06-08T17:15:01.723Z,25.53
2019-06-08T17:17:34.186Z,25.46
2019-06-08T17:20:06.527Z,25.22
2019-06-08T17:22:39.055Z,25.16
2019-06-08T17:25:10.690Z,25.21
2019-06-08T17:27:41.567Z,25.28
2019-06-08T17:30:13.038Z,25.09
2019-06-08T17:32:44.219Z,24.94
2019-06-08T17:35:16.205Z,25.07
2019-06-08T17:37:47.307Z,25.06
2019-06-08T17:40:19.727Z,25.05
2019-06-08T17:42:51.092Z,25.33
2019-06-08T17:45:21.916Z,25.33
2019-06-08T17:47:52.836Z,25.44
2019-06-08T17:50:24.227Z,24.98
2019-06-08T17:52:55.109Z,25.06
2019-06-08T17:55:25.924Z,24.78
2019-06-08T17:57:56.703Z,24.33
2019-06-08T18:00:27.857Z,24.45
2019-06-08T18:03:00.611Z,24.32
2019-06-08T18:05:31.641Z,24.28
2019-06-08T18:08:02.555Z,24.04
2019-06-08T18:10:35.869Z,23.85
2019-06-08T18:13:08.006Z,23.94
2019-06-08T18:15:40.591Z,23.64
2019-06-08T18:18:11.486Z,23.47
2019-06-08T18:20:43.836Z,23.49
2019-06-08T18:23:17.227Z,23.46
2019-06-08T18:25:48.184Z,23.39
2019-06-08T18:28:20.111Z,23.22
2019-06-08T18:30:50.878Z,23.18
2019-06-08T18:33:21.632Z,22.99
2019-06-08T18:35:52.915Z,22.87
2019-06-08T18:38:23.748Z,22.75
2019-06-08T18:40:54.710Z,22.46
2019-06-08T18:43:27.545Z,22.05
2019-06-08T18:45:58.309Z,21.54
2019-06-08T18:48:29.287Z,21.48
2019-06-08T18:51:01.750Z,21.26
2019-06-08T18:53:45.576Z,20.75
2019-06-08T18:56:08.043Z,20.45
2019-06-08T18:58:38.350Z,20.32
2019-06-08T19:01:09.574Z,20.12
2019-06-08T19:03:43.118Z,19.88
2019-06-08T19:06:13.354Z,19.70
2019-06-08T19:08:46.618Z,19.41
2019-06-08T19:11:19.301Z,19.09
2019-06-08T19:13:52.522Z,18.89
2019-06-08T19:16:24.260Z,18.78
2019-06-08T19:18:57.942Z,18.60
2019-06-08T19:21:28.341Z,18.41
2019-06-08T19:23:59.298Z,18.15
2019-06-08T19:26:30.055Z,17.83
2019-06-08T19:29:01.499Z,17.58
2019-06-08T19:31:32.726Z,17.39
2019-06-08T19:34:07.515Z,17.41
2019-06-08T19:36:41.356Z,17.24
2019-06-08T19:39:12.804Z,17.01
2019-06-08T19:41:44.748Z,16.87
2019-06-08T19:44:18.364Z,16.66
2019-06-08T19:46:53.606Z,16.36
2019-06-08T19:49:27.980Z,16.25
2019-06-08T19:51:58.370Z,16.21
2019-06-08T19:54:30.232Z,16.13
2019-06-08T19:57:03.612Z,15.78
2019-06-08T19:59:34.769Z,15.63
2019-06-08T20:02:08.684Z,15.44
2019-06-08T20:04:38.864Z,15.22
2019-06-08T20:07:09.689Z,15.06
2019-06-08T20:09:41.097Z,15.00
2019-06-08T20:12:12.142Z,14.89
2019-06-08T20:14:48.014Z,14.76
2019-06-08T20:17:19.535Z,14.73
2019-06-08T20:19:50.807Z,14.75
2019-06-08T20:22:21.881Z,14.65
2019-06-08T20:24:55.787Z,14.56
2019-06-08T20:27:27.701Z,14.41
2019-06-08T20:29:59.468Z,14.32
2019-06-08T20:32:32.019Z,14.17
2019-06-08T20:35:07.996Z,14.10
2019-06-08T20:37:39.486Z,14.08
2019-06-08T20:40:14.295Z,13.99
2019-06-08T20:42:47.552Z,13.88
2019-06-08T20:45:17.400Z,13.65
2019-06-08T20:47:51.050Z,13.46
2019-06-08T20:50:21.529Z,13.43
2019-06-08T20:52:53.786Z,13.29
2019-06-08T20:55:25.275Z,13.24
2019-06-08T20:57:57.478Z,13.24
2019-06-08T21:00:29.743Z,13.26
2019-06-08T21:03:03.022Z,13.15
2019-06-08T21:05:33.303Z,13.06
2019-06-08T21:08:08.169Z,13.01
2019-06-08T21:10:38.006Z,12.96
2019-06-08T21:13:09.082Z,12.90
2019-06-08T21:15:42.787Z,12.87
2019-06-08T21:18:19.122Z,12.76
2019-06-08T21:20:53.057Z,12.60
2019-06-08T21:23:24.084Z,12.26
2019-06-08T21:25:59.939Z,12.03
2019-06-08T21:28:30.595Z,11.91
2019-06-08T21:31:02.437Z,11.84
2019-06-08T21:33:33.480Z,11.76
2019-06-08T21:36:08.484Z,11.89
2019-06-08T21:38:38.807Z,11.97
2019-06-08T21:41:10.898Z,11.98
2019-06-08T21:43:43.035Z,11.91
2019-06-08T21:46:14.888Z,11.88
2019-06-08T21:48:48.652Z,11.87
2019-06-08T21:51:19.104Z,11.80
2019-06-08T21:53:51.580Z,11.77
2019-06-08T21:56:23.596Z,11.68
2019-06-08T21:58:55.043Z,11.53
2019-06-08T22:01:29.076Z,11.24
2019-06-08T22:04:00.484Z,11.04
2019-06-08T22:06:32.092Z,10.94
2019-06-08T22:09:03.016Z,10.92
2019-06-08T22:11:37.606Z,11.01
2019-06-08T22:14:09.342Z,11.05
2019-06-08T22:16:42.986Z,11.03
2019-06-08T22:19:13.912Z,11.08
2019-06-08T22:21:45.137Z,11.13
2019-06-08T22:24:17.207Z,11.08
2019-06-08T22:26:48.224Z,10.98
2019-06-08T22:29:19.105Z,10.95
2019-06-08T22:31:52.207Z,10.64
2019-06-08T22:34:23.285Z,10.46
2019-06-08T22:36:54.229Z,10.44
2019-06-08T22:39:27.993Z,10.43
2019-06-08T22:42:00.897Z,10.48
2019-06-08T22:44:31.268Z,10.44
2019-06-08T22:47:03.604Z,10.33
2019-06-08T22:49:35.234Z,10.29
2019-06-08T22:52:08.251Z,10.37
2019-06-08T22:54:38.581Z,10.33
2019-06-08T22:57:09.777Z,10.35
2019-06-08T22:59:41.116Z,10.43
2019-06-08T23:02:11.951Z,10.36
2019-06-08T23:04:43.084Z,10.28
2019-06-08T23:07:26.555Z,10.23
2019-06-08T23:09:47.846Z,10.14
2019-06-08T23:12:19.056Z,10.06
2019-06-08T23:14:50.188Z,10.02
2019-06-08T23:17:22.092Z,9.92
2019-06-08T23:19:53.233Z,9.88
2019-06-08T23:22:24.298Z,9.82
2019-06-08T23:24:55.626Z,9.70
2019-06-08T23:27:27.162Z,9.62
2019-06-08T23:30:00.554Z,9.60
2019-06-08T23:32:31.840Z,9.50
2019-06-08T23:35:04.834Z,9.50
2019-06-08T23:37:37.403Z,9.45
2019-06-08T23:40:09.333Z,9.35
2019-06-08T23:42:40.564Z,9.26
2019-06-08T23:45:11.704Z,9.13
2019-06-08T23:47:42.764Z,8.97
2019-06-08T23:50:13.904Z,9.01
2019-06-08T23:52:47.539Z,9.08
2019-06-08T23:55:18.196Z,9.33
2019-06-08T23:57:49.172Z,9.38
